Time;durP1;ratioP1;P1;durP2;ratioP2;P2;SDS_P1;SDS_P2;PMS_P1;PMS_P2;Temp;Humidity;BMP_temperature;BMP_pressure;BME280_temperature;BME280_humidity;BME280_pressure;Samples;Min_cycle;Max_cycle;Signal;HPM_P1;HPM_P2
2023/07/28 00:01:49;;;;;;;3.50;3.20;;;;;;;;;;5053060;28;20056;-77
2023/07/28 00:04:16;;;;;;;4.35;3.67;;;;;;;;;;5053029;28;20529;-76
2023/07/28 00:06:44;;;;;;;4.32;3.80;;;;;;;;;;5052966;28;20076;-76
2023/07/28 00:09:11;;;;;;;4.93;4.40;;;;;;;;;;5047985;28;20049;-76
2023/07/28 00:11:38;;;;;;;5.88;4.53;;;;;;;;;;5053033;28;20064;-76
2023/07/28 00:14:05;;;;;;;5.25;4.55;;;;;;;;;;5048320;28;20410;-76
2023/07/28 00:16:31;;;;;;;5.50;4.30;;;;;;;;;;5052894;28;20057;-76
2023/07/28 00:18:58;;;;;;;4.57;4.10;;;;;;;;;;5050620;28;20045;-76
2023/07/28 00:21:25;;;;;;;4.90;4.40;;;;;;;;;;5052661;28;20064;-76
2023/07/28 00:23:55;;;;;;;6.15;4.03;;;;;;;;;;5052119;28;20060;-76
2023/07/28 00:26:21;;;;;;;4.97;4.35;;;;;;;;;;5052717;28;20059;-77
2023/07/28 00:28:48;;;;;;;4.63;4.22;;;;;;;;;;5033036;28;20061;-77
2023/07/28 00:31:18;;;;;;;5.30;4.78;;;;;;;;;;5012988;28;20053;-77
2023/07/28 00:33:45;;;;;;;5.32;4.57;;;;;;;;;;5013005;28;20419;-76
2023/07/28 00:36:12;;;;;;;5.05;4.55;;;;;;;;;;5012687;28;20058;-76
2023/07/28 00:38:39;;;;;;;5.18;4.68;;;;;;;;;;5012646;28;20448;-76
2023/07/28 00:41:07;;;;;;;6.47;4.70;;;;;;;;;;5012971;28;20056;-76
2023/07/28 00:43:35;;;;;;;5.68;5.05;;;;;;;;;;5026010;28;20049;-76
2023/07/28 00:46:06;;;;;;;6.88;5.07;;;;;;;;;;5052232;28;20394;-77
2023/07/28 00:48:33;;;;;;;4.32;3.92;;;;;;;;;;5046927;28;20163;-77
2023/07/28 00:51:00;;;;;;;5.07;4.53;;;;;;;;;;5052250;28;20057;-76
2023/07/28 00:53:27;;;;;;;5.53;4.28;;;;;;;;;;5052458;28;20063;-76
2023/07/28 00:55:54;;;;;;;4.10;3.70;;;;;;;;;;5052331;28;20162;-76
2023/07/28 00:58:22;;;;;;;5.30;4.00;;;;;;;;;;5047408;28;20386;-76
2023/07/28 01:00:49;;;;;;;4.15;3.60;;;;;;;;;;5052591;28;20470;-76
2023/07/28 01:03:16;;;;;;;4.45;3.83;;;;;;;;;;5052229;28;20057;-76
2023/07/28 01:05:50;;;;;;;5.20;3.58;;;;;;;;;;5052292;28;20063;-76
2023/07/28 01:08:21;;;;;;;5.47;3.30;;;;;;;;;;5036313;28;20056;-77
2023/07/28 01:10:47;;;;;;;4.00;3.60;;;;;;;;;;5012610;28;20054;-76
2023/07/28 01:13:14;;;;;;;3.88;3.05;;;;;;;;;;5013686;28;20064;-76
2023/07/28 01:15:42;;;;;;;4.57;3.80;;;;;;;;;;5041248;28;20076;-76
2023/07/28 01:18:12;;;;;;;5.90;3.85;;;;;;;;;;5051827;28;20053;-76
2023/07/28 01:20:39;;;;;;;4.03;3.58;;;;;;;;;;5052247;28;20056;-76
2023/07/28 01:23:09;;;;;;;5.32;3.60;;;;;;;;;;5051563;28;20053;-76
2023/07/28 01:25:48;;;;;;;4.20;3.80;;;;;;;;;;5050608;28;20052;-76
2023/07/28 01:28:16;;;;;;;4.30;3.80;;;;;;;;;;5046847;28;20487;-76
2023/07/28 01:30:43;;;;;;;4.90;3.28;;;;;;;;;;5050797;28;20049;-76
2023/07/28 01:33:10;;;;;;;4.03;2.88;;;;;;;;;;5051706;28;20052;-76
2023/07/28 01:35:37;;;;;;;3.13;2.53;;;;;;;;;;5051138;28;20063;-76
2023/07/28 01:38:04;;;;;;;3.30;3.00;;;;;;;;;;5055513;28;20052;-76
2023/07/28 01:40:31;;;;;;;3.78;2.90;;;;;;;;;;5055363;28;20060;-76
2023/07/28 01:42:58;;;;;;;3.10;2.72;;;;;;;;;;5055631;28;20409;-76
2023/07/28 01:45:26;;;;;;;2.95;2.60;;;;;;;;;;5049830;28;20505;-76
2023/07/28 01:47:54;;;;;;;2.92;2.72;;;;;;;;;;5043850;28;20057;-76
2023/07/28 01:50:21;;;;;;;4.45;2.97;;;;;;;;;;5035395;28;20050;-76
2023/07/28 01:52:48;;;;;;;3.22;2.92;;;;;;;;;;5035879;28;20061;-76
2023/07/28 01:55:15;;;;;;;3.20;2.90;;;;;;;;;;5017763;28;20491;-76
2023/07/28 01:57:51;;;;;;;5.15;2.38;;;;;;;;;;5015976;28;20065;-76
2023/07/28 02:00:18;;;;;;;2.88;2.65;;;;;;;;;;5044983;28;20053;-76
2023/07/28 02:02:47;;;;;;;2.70;2.10;;;;;;;;;;5055537;28;20053;-77
2023/07/28 02:05:13;;;;;;;2.47;2.10;;;;;;;;;;5030101;28;20430;-76
2023/07/28 02:07:40;;;;;;;3.65;2.33;;;;;;;;;;5044220;28;20852;-76
2023/07/28 02:10:16;;;;;;;2.97;2.65;;;;;;;;;;5055052;28;20052;-76
2023/07/28 02:12:46;;;;;;;3.30;2.20;;;;;;;;;;5053483;28;20057;-75
2023/07/28 02:15:16;;;;;;;2.78;2.20;;;;;;;;;;5048244;28;20409;-76
2023/07/28 02:17:43;;;;;;;2.95;2.40;;;;;;;;;;5046480;28;20060;-76
2023/07/28 02:20:12;;;;;;;2.67;2.17;;;;;;;;;;5034895;28;20486;-76
2023/07/28 02:22:39;;;;;;;2.40;1.92;;;;;;;;;;5019863;28;20407;-76
2023/07/28 02:25:06;;;;;;;2.53;2.20;;;;;;;;;;5014909;28;20053;-76
2023/07/28 02:27:33;;;;;;;2.30;1.83;;;;;;;;;;5014923;28;20419;-76
2023/07/28 02:30:00;;;;;;;2.67;2.20;;;;;;;;;;5030905;28;20053;-76
2023/07/28 02:32:28;;;;;;;2.53;1.92;;;;;;;;;;5054741;28;20076;-76
2023/07/28 02:34:55;;;;;;;1.95;1.75;;;;;;;;;;5054357;28;20049;-75
2023/07/28 02:37:23;;;;;;;2.22;2.00;;;;;;;;;;5054705;28;20053;-76
2023/07/28 02:39:50;;;;;;;3.10;2.15;;;;;;;;;;5044510;28;20046;-76
2023/07/28 02:42:19;;;;;;;2.08;1.80;;;;;;;;;;5036941;28;20053;-76
2023/07/28 02:44:46;;;;;;;2.75;2.22;;;;;;;;;;5050154;28;20053;-76
2023/07/28 02:47:16;;;;;;;2.40;1.90;;;;;;;;;;5053832;28;20053;-76
2023/07/28 02:49:44;;;;;;;2.38;1.80;;;;;;;;;;5052460;28;20056;-76
2023/07/28 02:52:11;;;;;;;2.58;2.20;;;;;;;;;;5054711;28;20053;-75
2023/07/28 02:54:39;;;;;;;4.63;2.00;;;;;;;;;;5054267;28;20482;-76
2023/07/28 02:57:06;;;;;;;1.98;1.77;;;;;;;;;;5037720;28;20056;-76
2023/07/28 02:59:33;;;;;;;4.20;2.03;;;;;;;;;;5033864;28;20410;-75
2023/07/28 03:01:59;;;;;;;3.17;1.90;;;;;;;;;;5054238;28;20053;-76
2023/07/28 03:04:30;;;;;;;2.47;1.70;;;;;;;;;;5054385;28;20057;-75
2023/07/28 03:06:57;;;;;;;2.17;1.67;;;;;;;;;;5053620;28;20056;-75
2023/07/28 03:09:22;;;;;;;2.92;1.75;;;;;;;;;;5052334;28;20546;-76
2023/07/28 03:11:53;;;;;;;1.70;1.58;;;;;;;;;;5037006;28;20074;-77
2023/07/28 03:14:20;;;;;;;2.15;1.38;;;;;;;;;;5014217;28;20061;-77
2023/07/28 03:16:47;;;;;;;3.03;1.35;;;;;;;;;;5050921;28;20057;-76
2023/07/28 03:19:14;;;;;;;2.42;1.50;;;;;;;;;;5035977;28;20486;-75
2023/07/28 03:21:40;;;;;;;2.10;1.60;;;;;;;;;;5053639;28;20060;-75
2023/07/28 03:24:10;;;;;;;2.10;1.35;;;;;;;;;;5053673;28;20397;-76
2023/07/28 03:26:37;;;;;;;2.45;1.35;;;;;;;;;;5053602;28;20056;-76
2023/07/28 03:29:05;;;;;;;1.90;1.20;;;;;;;;;;5051151;28;20053;-75
2023/07/28 03:31:35;;;;;;;1.90;1.40;;;;;;;;;;5015214;28;20050;-76
2023/07/28 03:34:02;;;;;;;1.83;1.42;;;;;;;;;;5014083;28;20064;-75
2023/07/28 03:36:28;;;;;;;2.33;1.40;;;;;;;;;;5013820;28;20050;-76
2023/07/28 03:38:55;;;;;;;1.83;1.30;;;;;;;;;;5014296;28;20060;-77
2023/07/28 03:41:22;;;;;;;2.00;1.40;;;;;;;;;;5013390;28;20061;-75
2023/07/28 03:43:49;;;;;;;2.65;1.20;;;;;;;;;;5013889;28;20439;-75
2023/07/28 03:46:17;;;;;;;2.08;1.13;;;;;;;;;;5042491;28;20378;-75
2023/07/28 03:48:44;;;;;;;1.92;1.10;;;;;;;;;;5052989;28;20486;-76
2023/07/28 03:51:11;;;;;;;2.90;1.15;;;;;;;;;;5051474;28;20486;-75
2023/07/28 03:53:37;;;;;;;1.80;1.20;;;;;;;;;;5053294;28;20410;-76
2023/07/28 03:56:04;;;;;;;2.40;1.20;;;;;;;;;;5052928;28;20421;-77
2023/07/28 03:58:31;;;;;;;3.25;1.10;;;;;;;;;;5043700;28;20056;-76
2023/07/28 04:00:58;;;;;;;2.55;1.08;;;;;;;;;;5033874;28;20053;-76
2023/07/28 04:03:26;;;;;;;2.75;1.00;;;;;;;;;;5051725;28;20053;-77
2023/07/28 04:05:53;;;;;;;3.22;1.58;;;;;;;;;;5052669;28;20053;-76
2023/07/28 04:08:20;;;;;;;2.13;1.20;;;;;;;;;;5052733;28;20056;-75
2023/07/28 04:10:46;;;;;;;1.80;1.00;;;;;;;;;;5036872;28;20064;-75
2023/07/28 04:13:13;;;;;;;2.10;1.05;;;;;;;;;;5019022;28;20077;-76
2023/07/28 04:15:40;;;;;;;2.17;1.40;;;;;;;;;;5030571;28;20422;-76
2023/07/28 04:18:07;;;;;;;4.00;1.70;;;;;;;;;;5052483;28;20402;-76
2023/07/28 04:20:35;;;;;;;2.25;1.10;;;;;;;;;;5039703;28;20418;-76
2023/07/28 04:23:02;;;;;;;2.85;1.00;;;;;;;;;;5032850;28;20501;-75
2023/07/28 04:25:28;;;;;;;2.30;1.25;;;;;;;;;;5032551;28;20061;-76
2023/07/28 04:27:56;;;;;;;4.70;1.85;;;;;;;;;;5032971;28;20064;-76
2023/07/28 04:30:23;;;;;;;1.80;1.02;;;;;;;;;;5029069;28;20079;-76
2023/07/28 04:32:49;;;;;;;2.10;0.98;;;;;;;;;;5045401;28;20053;-76
2023/07/28 04:35:16;;;;;;;2.25;0.90;;;;;;;;;;5052364;28;20398;-76
2023/07/28 04:37:44;;;;;;;2.38;0.90;;;;;;;;;;5052539;28;20064;-76
2023/07/28 04:40:12;;;;;;;1.77;1.13;;;;;;;;;;5050693;28;20494;-77
2023/07/28 04:42:39;;;;;;;2.13;1.00;;;;;;;;;;5052415;28;20061;-76
2023/07/28 04:45:06;;;;;;;1.85;1.00;;;;;;;;;;5045369;28;20057;-77
2023/07/28 04:47:33;;;;;;;1.60;0.95;;;;;;;;;;5052267;28;20057;-76
2023/07/28 04:50:00;;;;;;;1.92;1.10;;;;;;;;;;5035791;28;20723;-83
2023/07/28 04:52:26;;;;;;;3.88;1.33;;;;;;;;;;5029127;28;20076;-83
2023/07/28 04:54:54;;;;;;;1.65;1.00;;;;;;;;;;5035100;28;20052;-82
2023/07/28 04:57:21;;;;;;;3.17;1.20;;;;;;;;;;5036539;28;20069;-82
2023/07/28 04:59:48;;;;;;;2.05;1.10;;;;;;;;;;5049453;28;20505;-82
2023/07/28 05:02:15;;;;;;;2.50;0.90;;;;;;;;;;5050930;28;20371;-83
2023/07/28 05:04:42;;;;;;;2.45;0.90;;;;;;;;;;5035699;28;20069;-83
2023/07/28 05:07:08;;;;;;;1.85;0.90;;;;;;;;;;5024444;28;20052;-83
2023/07/28 05:09:37;;;;;;;1.40;0.70;;;;;;;;;;5025560;28;20057;-83
2023/07/28 05:12:06;;;;;;;2.42;0.70;;;;;;;;;;5031367;28;20053;-82
2023/07/28 05:14:34;;;;;;;1.10;0.70;;;;;;;;;;5032252;28;22136;-84
2023/07/28 05:17:01;;;;;;;1.95;0.80;;;;;;;;;;5035256;28;20510;-79
2023/07/28 05:19:29;;;;;;;1.95;0.82;;;;;;;;;;5036257;28;20061;-87
2023/07/28 05:21:56;;;;;;;1.73;1.02;;;;;;;;;;5036674;28;20471;-87
2023/07/28 05:24:23;;;;;;;2.47;1.08;;;;;;;;;;5036232;28;20053;-85
2023/07/28 05:26:49;;;;;;;2.75;1.00;;;;;;;;;;5045196;28;20052;-86
2023/07/28 05:29:18;;;;;;;1.58;0.88;;;;;;;;;;5049797;28;20522;-84
2023/07/28 05:31:44;;;;;;;2.22;1.00;;;;;;;;;;5016672;28;20372;-84
2023/07/28 05:34:12;;;;;;;2.03;1.02;;;;;;;;;;5016236;28;20419;-86
2023/07/28 05:36:38;;;;;;;1.95;1.15;;;;;;;;;;5016888;28;20062;-84
2023/07/28 05:39:05;;;;;;;2.72;0.75;;;;;;;;;;5015800;28;20065;-85
2023/07/28 05:41:32;;;;;;;1.85;0.90;;;;;;;;;;5016287;28;20447;-84
2023/07/28 05:43:59;;;;;;;1.30;0.77;;;;;;;;;;5016594;28;20054;-84
2023/07/28 05:46:28;;;;;;;1.35;0.80;;;;;;;;;;5018280;28;20057;-84
2023/07/28 05:48:55;;;;;;;1.77;1.10;;;;;;;;;;5037799;28;20061;-85
2023/07/28 05:51:22;;;;;;;1.30;0.75;;;;;;;;;;5053220;28;20057;-85
2023/07/28 05:53:48;;;;;;;1.83;0.80;;;;;;;;;;5035084;28;20056;-86
2023/07/28 05:56:15;;;;;;;1.60;0.93;;;;;;;;;;5036721;28;20068;-88
2023/07/28 05:58:42;;;;;;;2.28;1.10;;;;;;;;;;5036638;28;20050;-87
2023/07/28 06:01:09;;;;;;;2.15;1.00;;;;;;;;;;5025476;28;20054;-83
2023/07/28 06:03:37;;;;;;;2.30;0.82;;;;;;;;;;5025773;28;20494;-82
2023/07/28 06:06:04;;;;;;;3.10;1.05;;;;;;;;;;5032573;28;20061;-83
2023/07/28 06:08:31;;;;;;;1.30;0.85;;;;;;;;;;5037088;28;20057;-83
2023/07/28 06:10:58;;;;;;;2.05;0.88;;;;;;;;;;5033390;28;20053;-81
2023/07/28 06:13:24;;;;;;;1.25;0.80;;;;;;;;;;5032321;28;20053;-83
2023/07/28 06:15:54;;;;;;;1.77;0.88;;;;;;;;;;5031327;28;20057;-84
2023/07/28 06:18:22;;;;;;;2.58;1.00;;;;;;;;;;5030959;28;20064;-83
2023/07/28 06:20:50;;;;;;;1.30;0.70;;;;;;;;;;5030325;28;20049;-83
2023/07/28 06:23:17;;;;;;;1.98;0.88;;;;;;;;;;5034062;28;20057;-82
2023/07/28 06:25:45;;;;;;;2.15;0.90;;;;;;;;;;5035063;28;20471;-83
2023/07/28 06:28:12;;;;;;;1.42;0.88;;;;;;;;;;5016321;28;20049;-85
2023/07/28 06:30:39;;;;;;;1.17;0.73;;;;;;;;;;5028297;28;20057;-85
2023/07/28 06:33:06;;;;;;;2.85;1.00;;;;;;;;;;5026609;28;21045;-84
2023/07/28 06:35:33;;;;;;;1.75;1.10;;;;;;;;;;5024281;28;20056;-85
2023/07/28 06:38:02;;;;;;;1.98;0.90;;;;;;;;;;5028994;28;20064;-83
2023/07/28 06:40:29;;;;;;;1.40;0.80;;;;;;;;;;5028674;28;20057;-82
2023/07/28 06:42:56;;;;;;;1.67;0.88;;;;;;;;;;5025686;28;20080;-82
2023/07/28 06:45:22;;;;;;;1.30;0.80;;;;;;;;;;5027313;28;20049;-82
2023/07/28 06:47:51;;;;;;;1.30;0.93;;;;;;;;;;5028417;28;20049;-81
2023/07/28 06:50:18;;;;;;;2.05;0.77;;;;;;;;;;5029566;28;20165;-82
2023/07/28 06:52:44;;;;;;;1.63;0.80;;;;;;;;;;5033514;28;20319;-83
2023/07/28 06:55:13;;;;;;;1.48;0.75;;;;;;;;;;5031055;28;20054;-84
2023/07/28 06:57:39;;;;;;;1.88;0.80;;;;;;;;;;5020243;28;20057;-85
2023/07/28 07:00:09;;;;;;;1.48;0.90;;;;;;;;;;5024650;28;20057;-85
2023/07/28 07:02:35;;;;;;;;;;;;;;;;;;5033422;28;20462;-85
2023/07/28 07:05:02;;;;;;;2.80;0.98;;;;;;;;;;5034657;28;19925;-84
2023/07/28 07:07:30;;;;;;;1.02;0.63;;;;;;;;;;5030155;28;20410;-83
2023/07/28 07:10:00;;;;;;;1.20;0.80;;;;;;;;;;5030892;28;20398;-76
2023/07/28 07:12:28;;;;;;;1.92;1.00;;;;;;;;;;5029523;28;20068;-83
2023/07/28 07:14:55;;;;;;;2.25;0.90;;;;;;;;;;5031992;28;20049;-85
2023/07/28 07:17:22;;;;;;;1.55;1.00;;;;;;;;;;5020193;28;20523;-86
2023/07/28 07:19:49;;;;;;;1.60;1.00;;;;;;;;;;5035595;28;20521;-86
2023/07/28 07:22:15;;;;;;;1.90;1.40;;;;;;;;;;5032294;28;20056;-87
2023/07/28 07:24:42;;;;;;;2.50;1.90;;;;;;;;;;5031210;28;20053;-82
2023/07/28 07:27:10;;;;;;;2.67;2.25;;;;;;;;;;5037555;28;20045;-82
2023/07/28 07:29:39;;;;;;;2.70;2.35;;;;;;;;;;5033494;28;20045;-86
2023/07/28 07:32:06;;;;;;;3.95;2.80;;;;;;;;;;5027516;28;20154;-77
2023/07/28 07:34:34;;;;;;;2.60;2.20;;;;;;;;;;5031104;28;20052;-85
2023/07/28 07:37:01;;;;;;;2.53;2.03;;;;;;;;;;5033079;28;20049;-85
2023/07/28 07:39:28;;;;;;;3.00;1.52;;;;;;;;;;5032548;28;20517;-85
2023/07/28 07:41:55;;;;;;;2.78;2.30;;;;;;;;;;5031155;28;20518;-85
2023/07/28 07:44:21;;;;;;;3.28;1.98;;;;;;;;;;5022732;28;20049;-83
2023/07/28 07:46:50;;;;;;;2.03;1.60;;;;;;;;;;5027195;28;20053;-83
2023/07/28 07:49:17;;;;;;;2.40;1.73;;;;;;;;;;5027723;28;20058;-83
2023/07/28 07:51:44;;;;;;;2.10;1.90;;;;;;;;;;5044157;28;20060;-85
2023/07/28 07:54:15;;;;;;;3.55;1.90;;;;;;;;;;5023440;28;20053;-76
2023/07/28 07:56:42;;;;;;;2.55;1.90;;;;;;;;;;5035691;28;20049;-76
2023/07/28 07:59:09;;;;;;;2.67;1.95;;;;;;;;;;5032743;28;20068;-75
2023/07/28 08:01:35;;;;;;;2.65;1.90;;;;;;;;;;5030290;28;20056;-78
2023/07/28 08:04:04;;;;;;;2.65;2.20;;;;;;;;;;5020634;28;20045;-78
2023/07/28 08:06:30;;;;;;;3.80;1.92;;;;;;;;;;5035181;28;20060;-77
2023/07/28 08:08:59;;;;;;;3.13;2.03;;;;;;;;;;5014095;28;20083;-87
2023/07/28 08:11:26;;;;;;;2.10;1.80;;;;;;;;;;5032903;28;20053;-87
2023/07/28 08:13:52;;;;;;;3.65;2.50;;;;;;;;;;5033098;28;20056;-87
2023/07/28 08:16:21;;;;;;;2.67;2.42;;;;;;;;;;5032297;28;20077;-87
2023/07/28 08:18:48;;;;;;;2.60;2.30;;;;;;;;;;5032767;28;20388;-87
2023/07/28 08:21:17;;;;;;;3.13;2.45;;;;;;;;;;5032653;28;20045;-87
2023/07/28 08:23:44;;;;;;;5.55;2.72;;;;;;;;;;5036466;28;20065;-86
2023/07/28 08:26:10;;;;;;;4.47;2.78;;;;;;;;;;5028737;28;20049;-83
2023/07/28 08:28:50;;;;;;;2.25;1.80;;;;;;;;;;5032511;28;20054;-85
2023/07/28 08:31:16;;;;;;;3.65;2.10;;;;;;;;;;5027558;28;20057;-84
2023/07/28 08:33:43;;;;;;;2.90;2.15;;;;;;;;;;5020542;28;20045;-83
2023/07/28 08:36:10;;;;;;;2.20;1.98;;;;;;;;;;5028853;28;20053;-83
2023/07/28 08:38:38;;;;;;;2.83;2.22;;;;;;;;;;5030121;28;20057;-84
2023/07/28 08:41:06;;;;;;;2.22;1.98;;;;;;;;;;5031405;28;20049;-85
2023/07/28 08:43:33;;;;;;;2.42;1.50;;;;;;;;;;5033886;28;20045;-86
2023/07/28 08:45:59;;;;;;;2.50;1.30;;;;;;;;;;5027884;28;20359;-85
2023/07/28 08:48:26;;;;;;;1.73;1.35;;;;;;;;;;5045926;28;20115;-85
2023/07/28 08:50:53;;;;;;;2.00;1.40;;;;;;;;;;5038399;28;20061;-84
2023/07/28 08:53:20;;;;;;;1.55;1.20;;;;;;;;;;5028307;28;20057;-85
2023/07/28 08:55:48;;;;;;;1.70;1.38;;;;;;;;;;5023083;28;20517;-86
2023/07/28 08:58:16;;;;;;;1.75;1.40;;;;;;;;;;5032170;28;20056;-86
2023/07/28 09:00:43;;;;;;;1.55;1.02;;;;;;;;;;5026008;28;20057;-85
2023/07/28 09:03:11;;;;;;;1.40;1.02;;;;;;;;;;5035891;28;20049;-86
2023/07/28 09:05:40;;;;;;;1.92;1.30;;;;;;;;;;5023884;28;20053;-78
2023/07/28 09:08:07;;;;;;;1.40;1.00;;;;;;;;;;5029008;28;20467;-76
2023/07/28 09:10:41;;;;;;;2.22;1.30;;;;;;;;;;5029283;28;20410;-76
2023/07/28 09:13:11;;;;;;;1.40;1.10;;;;;;;;;;5030688;28;20046;-76
2023/07/28 09:15:38;;;;;;;1.65;1.13;;;;;;;;;;5025398;28;20053;-76
2023/07/28 09:18:07;;;;;;;1.48;1.00;;;;;;;;;;5028007;28;20054;-75
2023/07/28 09:20:34;;;;;;;;;;;;;;;;;;5027079;28;20500;-80
2023/07/28 09:23:01;;;;;;;3.03;1.20;;;;;;;;;;5023138;28;19927;-79
2023/07/28 09:25:29;;;;;;;2.13;1.30;;;;;;;;;;5027894;28;20060;-79
2023/07/28 09:27:55;;;;;;;1.83;1.30;;;;;;;;;;5025562;28;20050;-78
2023/07/28 09:30:24;;;;;;;1.92;1.48;;;;;;;;;;5029078;28;20060;-82
2023/07/28 09:32:52;;;;;;;2.20;1.70;;;;;;;;;;5030874;28;20049;-86
2023/07/28 09:35:20;;;;;;;2.35;1.65;;;;;;;;;;5042709;28;20482;-86
2023/07/28 09:37:48;;;;;;;2.00;1.27;;;;;;;;;;5031822;28;20510;-86
2023/07/28 09:40:21;;;;;;;2.53;1.20;;;;;;;;;;5032037;28;20057;-86
2023/07/28 09:42:50;;;;;;;1.70;1.10;;;;;;;;;;5029379;28;20049;-86
2023/07/28 09:45:17;;;;;;;1.60;1.10;;;;;;;;;;5019899;28;20410;-86
2023/07/28 09:47:46;;;;;;;1.55;1.02;;;;;;;;;;5014693;28;20057;-85
2023/07/28 09:50:15;;;;;;;1.90;1.13;;;;;;;;;;5029507;28;20053;-85
2023/07/28 09:52:43;;;;;;;1.67;1.30;;;;;;;;;;5029972;28;21613;-84
2023/07/28 09:55:13;;;;;;;4.20;1.38;;;;;;;;;;5031216;28;20053;-85
2023/07/28 09:57:42;;;;;;;1.70;1.30;;;;;;;;;;5024901;28;20057;-84
2023/07/28 10:00:11;;;;;;;2.75;1.58;;;;;;;;;;5032158;28;20049;-85
2023/07/28 10:02:38;;;;;;;1.83;1.30;;;;;;;;;;5034962;28;20042;-85
2023/07/28 10:05:07;;;;;;;2.70;1.25;;;;;;;;;;5032037;28;20054;-86
2023/07/28 10:07:35;;;;;;;1.65;1.23;;;;;;;;;;5034064;28;20061;-86
2023/07/28 10:10:02;;;;;;;3.28;1.42;;;;;;;;;;5031851;28;20062;-85
2023/07/28 10:12:29;;;;;;;2.22;1.33;;;;;;;;;;5028892;28;20050;-88
2023/07/28 10:15:02;;;;;;;2.22;1.58;;;;;;;;;;5032068;28;20065;-87
2023/07/28 10:17:32;;;;;;;3.67;1.55;;;;;;;;;;5034856;28;20056;-86
2023/07/28 10:19:59;;;;;;;2.15;1.50;;;;;;;;;;5035295;28;20056;-89
2023/07/28 10:22:27;;;;;;;1.48;1.30;;;;;;;;;;5023988;28;20371;-88
2023/07/28 10:25:08;;;;;;;3.23;1.87;;;;;;;;;;5040867;28;20049;-89
2023/07/28 10:27:36;;;;;;;2.00;1.80;;;;;;;;;;5045186;28;20049;-88
2023/07/28 10:30:05;;;;;;;2.17;1.60;;;;;;;;;;5040663;28;20051;-87
2023/07/28 10:32:37;;;;;;;3.40;1.70;;;;;;;;;;5039598;28;20053;-88
2023/07/28 10:35:07;;;;;;;3.47;1.98;;;;;;;;;;5033338;28;20509;-88
2023/07/28 10:37:35;;;;;;;2.30;1.65;;;;;;;;;;5041421;28;20053;-88
2023/07/28 10:40:24;;;;;;;2.75;1.60;;;;;;;;;;5055098;28;20433;-83
2023/07/28 10:42:52;;;;;;;2.85;1.70;;;;;;;;;;5054031;28;20053;-84
2023/07/28 10:45:18;;;;;;;3.75;1.55;;;;;;;;;;5048205;28;20060;-82
2023/07/28 10:47:46;;;;;;;2.53;1.50;;;;;;;;;;5053976;28;20466;-85
2023/07/28 10:50:13;;;;;;;2.40;1.65;;;;;;;;;;5053871;28;20057;-84
2023/07/28 10:52:41;;;;;;;2.88;2.08;;;;;;;;;;5048316;28;20065;-82
2023/07/28 10:55:13;;;;;;;2.92;2.63;;;;;;;;;;5034703;28;20057;-84
2023/07/28 10:57:39;;;;;;;4.82;2.80;;;;;;;;;;5036026;28;20061;-81
2023/07/28 11:00:07;;;;;;;2.90;2.60;;;;;;;;;;5039889;28;20097;-84
2023/07/28 11:02:34;;;;;;;3.17;2.80;;;;;;;;;;5023311;28;20059;-84
2023/07/28 11:05:06;;;;;;;3.85;2.50;;;;;;;;;;5050453;28;20052;-83
2023/07/28 11:07:33;;;;;;;2.80;2.50;;;;;;;;;;5049319;28;20049;-83
2023/07/28 11:10:02;;;;;;;3.28;2.45;;;;;;;;;;5050403;28;20045;-83
2023/07/28 11:12:29;;;;;;;2.65;2.22;;;;;;;;;;5048342;28;20076;-84
2023/07/28 11:14:56;;;;;;;2.67;2.47;;;;;;;;;;5043993;28;20056;-85
2023/07/28 11:17:23;;;;;;;3.47;2.35;;;;;;;;;;5043419;28;20060;-84
2023/07/28 11:19:49;;;;;;;2.65;2.05;;;;;;;;;;5048215;28;20051;-86
2023/07/28 11:22:17;;;;;;;3.03;2.10;;;;;;;;;;5046949;28;20069;-90
2023/07/28 11:24:45;;;;;;;4.07;1.80;;;;;;;;;;5050081;28;20048;-91
2023/07/28 11:27:13;;;;;;;2.53;1.95;;;;;;;;;;5046814;28;20490;-87
2023/07/28 11:29:41;;;;;;;3.25;2.00;;;;;;;;;;5049459;28;20053;-87
2023/07/28 11:32:09;;;;;;;2.95;2.25;;;;;;;;;;5039674;28;20050;-87
2023/07/28 11:34:36;;;;;;;1.85;1.50;;;;;;;;;;5045741;28;20048;-90
2023/07/28 11:37:05;;;;;;;2.65;1.85;;;;;;;;;;5053621;28;20057;-90
2023/07/28 11:39:32;;;;;;;2.38;1.90;;;;;;;;;;5053757;28;20414;-88
2023/07/28 11:41:59;;;;;;;2.67;1.40;;;;;;;;;;5033828;28;20060;-86
2023/07/28 11:44:27;;;;;;;2.35;1.70;;;;;;;;;;5035688;28;20060;-85
2023/07/28 11:46:55;;;;;;;1.83;1.40;;;;;;;;;;5027834;28;20061;-83
2023/07/28 11:49:22;;;;;;;1.52;1.38;;;;;;;;;;5030428;28;20498;-85
2023/07/28 11:51:50;;;;;;;2.33;1.42;;;;;;;;;;5032124;28;20045;-84
2023/07/28 11:54:21;;;;;;;1.80;1.30;;;;;;;;;;5033694;28;20501;-80
2023/07/28 11:56:49;;;;;;;3.67;1.35;;;;;;;;;;5020390;28;20056;-80
2023/07/28 11:59:17;;;;;;;2.00;1.35;;;;;;;;;;5027902;28;20068;-81
2023/07/28 12:01:55;;;;;;;3.35;1.70;;;;;;;;;;5026199;28;20567;-80
2023/07/28 12:04:23;;;;;;;4.15;1.60;;;;;;;;;;5031222;28;20078;-81
2023/07/28 12:07:04;;;;;;;1.55;1.30;;;;;;;;;;5031778;28;20438;-81
2023/07/28 12:09:31;;;;;;;1.75;1.08;;;;;;;;;;5032313;28;20391;-80
2023/07/28 12:11:58;;;;;;;1.50;1.20;;;;;;;;;;5031076;28;20078;-81
2023/07/28 12:14:32;;;;;;;4.38;1.15;;;;;;;;;;5032961;28;20053;-82
2023/07/28 12:17:00;;;;;;;2.53;1.20;;;;;;;;;;5027479;28;20045;-82
2023/07/28 12:19:27;;;;;;;3.25;1.00;;;;;;;;;;5026629;28;20060;-76
2023/07/28 12:21:56;;;;;;;2.70;1.20;;;;;;;;;;5024185;28;20400;-82
2023/07/28 12:24:24;;;;;;;1.48;1.05;;;;;;;;;;5035386;28;20048;-78
2023/07/28 12:26:52;;;;;;;2.22;1.00;;;;;;;;;;5033885;28;20053;-77
2023/07/28 12:29:18;;;;;;;4.82;1.10;;;;;;;;;;5029859;28;20053;-78
2023/07/28 12:31:45;;;;;;;1.30;1.00;;;;;;;;;;5034381;28;20056;-77
2023/07/28 12:34:13;;;;;;;1.88;0.95;;;;;;;;;;5029510;28;20050;-78
2023/07/28 12:36:40;;;;;;;2.83;1.45;;;;;;;;;;5037763;28;20053;-77
2023/07/28 12:39:07;;;;;;;3.92;1.40;;;;;;;;;;5028882;28;20056;-78
2023/07/28 12:41:34;;;;;;;1.67;1.10;;;;;;;;;;5034055;28;20057;-78
2023/07/28 12:44:01;;;;;;;1.77;1.02;;;;;;;;;;5029145;28;20056;-79
2023/07/28 12:46:27;;;;;;;1.83;1.10;;;;;;;;;;5029276;28;20061;-78
2023/07/28 12:48:54;;;;;;;1.80;1.02;;;;;;;;;;5035602;28;20443;-78
2023/07/28 12:51:23;;;;;;;1.20;0.90;;;;;;;;;;5036010;28;20061;-78
2023/07/28 12:53:49;;;;;;;;;;;;;;;;;;5041992;28;20375;-78
2023/07/28 12:56:16;;;;;;;1.85;0.90;;;;;;;;;;5036434;28;20413;-79
2023/07/28 12:58:43;;;;;;;1.30;0.80;;;;;;;;;;5025153;28;20045;-77
2023/07/28 13:01:11;;;;;;;3.50;1.08;;;;;;;;;;5042388;28;20041;-80
2023/07/28 13:03:38;;;;;;;;;;;;;;;;;;5029686;28;20060;-85
2023/07/28 13:06:05;;;;;;;0.98;0.60;;;;;;;;;;5030309;28;19921;-85
2023/07/28 13:08:33;;;;;;;1.20;0.70;;;;;;;;;;5027649;28;20057;-77
2023/07/28 13:11:00;;;;;;;1.25;0.85;;;;;;;;;;5034108;28;20045;-75
2023/07/28 13:13:29;;;;;;;1.92;0.80;;;;;;;;;;5030202;28;20057;-76
2023/07/28 13:15:57;;;;;;;1.48;1.00;;;;;;;;;;5031625;28;20399;-77
2023/07/28 13:18:25;;;;;;;3.17;1.20;;;;;;;;;;5038560;28;20060;-78
2023/07/28 13:20:51;;;;;;;1.35;0.73;;;;;;;;;;5031273;28;20418;-78
2023/07/28 13:23:18;;;;;;;1.70;0.90;;;;;;;;;;5036441;28;20061;-79
2023/07/28 13:25:46;;;;;;;1.42;0.80;;;;;;;;;;5018127;28;20490;-78
2023/07/28 13:28:14;;;;;;;1.30;0.70;;;;;;;;;;5020474;28;20053;-78
2023/07/28 13:30:41;;;;;;;1.92;0.80;;;;;;;;;;5028226;28;20056;-78
2023/07/28 13:33:08;;;;;;;1.20;0.80;;;;;;;;;;5026877;28;20494;-77
2023/07/28 13:35:35;;;;;;;1.20;0.90;;;;;;;;;;5030262;28;20410;-78
2023/07/28 13:38:02;;;;;;;1.70;0.90;;;;;;;;;;5054932;28;20053;-78
2023/07/28 13:40:28;;;;;;;1.33;0.80;;;;;;;;;;5047828;28;20064;-78
2023/07/28 13:42:56;;;;;;;1.20;0.70;;;;;;;;;;5041408;28;20053;-78
2023/07/28 13:45:23;;;;;;;1.92;0.80;;;;;;;;;;5034855;28;20046;-76
2023/07/28 13:47:51;;;;;;;1.58;0.80;;;;;;;;;;5039805;28;20053;-79
2023/07/28 13:50:17;;;;;;;1.60;0.90;;;;;;;;;;5024258;28;20062;-79
2023/07/28 13:52:44;;;;;;;1.38;0.82;;;;;;;;;;5035937;28;20053;-79
2023/07/28 13:55:11;;;;;;;2.53;0.90;;;;;;;;;;5029207;28;20045;-79
2023/07/28 13:57:38;;;;;;;2.80;0.70;;;;;;;;;;5045183;28;20482;-79
2023/07/28 14:00:10;;;;;;;2.60;0.80;;;;;;;;;;5044821;28;20414;-80
2023/07/28 14:02:37;;;;;;;1.95;0.90;;;;;;;;;;5031384;28;20064;-77
2023/07/28 14:05:05;;;;;;;1.52;0.80;;;;;;;;;;5023255;28;20381;-79
2023/07/28 14:07:32;;;;;;;1.50;0.80;;;;;;;;;;5037140;28;20478;-78
2023/07/28 14:09:59;;;;;;;1.77;0.90;;;;;;;;;;5020243;28;20049;-75
2023/07/28 14:12:25;;;;;;;1.40;0.88;;;;;;;;;;5032881;28;20052;-75
2023/07/28 14:14:52;;;;;;;2.78;0.80;;;;;;;;;;5032277;28;20056;-77
2023/07/28 14:17:20;;;;;;;1.80;0.90;;;;;;;;;;5031700;28;20080;-75
2023/07/28 14:19:47;;;;;;;1.60;0.80;;;;;;;;;;5033735;28;20065;-76
2023/07/28 14:22:19;;;;;;;1.48;0.73;;;;;;;;;;5033440;28;20052;-77
2023/07/28 14:24:46;;;;;;;1.95;0.85;;;;;;;;;;5032355;28;20053;-77
2023/07/28 14:27:13;;;;;;;2.10;0.82;;;;;;;;;;5026254;28;20056;-77
2023/07/28 14:29:39;;;;;;;1.45;0.93;;;;;;;;;;5017506;28;20065;-79
2023/07/28 14:32:06;;;;;;;1.38;0.90;;;;;;;;;;5031242;28;20160;-81
2023/07/28 14:34:35;;;;;;;1.40;0.80;;;;;;;;;;5034948;28;20054;-83
2023/07/28 14:37:05;;;;;;;1.77;0.77;;;;;;;;;;5028929;28;20050;-86
2023/07/28 14:39:32;;;;;;;1.73;0.82;;;;;;;;;;5037485;28;20467;-85
2023/07/28 14:41:59;;;;;;;1.40;0.80;;;;;;;;;;5033752;28;20410;-86
2023/07/28 14:44:26;;;;;;;2.10;1.00;;;;;;;;;;5036682;28;20061;-86
2023/07/28 14:46:53;;;;;;;1.50;0.90;;;;;;;;;;5033401;28;20049;-87